createdAt,value
2022-12-11T00:01:19.206Z,30.75
2022-12-11T00:03:48.226Z,30.85
2022-12-11T00:06:18.693Z,32.38
2022-12-11T00:08:47.732Z,30.67
2022-12-11T00:11:18.501Z,31.52
2022-12-11T00:13:46.623Z,30.98
2022-12-11T00:16:15.022Z,30.98
2022-12-11T00:18:43.551Z,33.25
2022-12-11T00:21:15.414Z,31.58
2022-12-11T00:23:44.713Z,30.00
2022-12-11T00:26:16.185Z,30.13
2022-12-11T00:28:45.379Z,30.08
2022-12-11T00:31:16.306Z,31.90
2022-12-11T00:33:46.322Z,30.70
2022-12-11T00:36:24.067Z,30.77
2022-12-11T00:38:53.326Z,31.55
2022-12-11T00:41:22.369Z,30.23
2022-12-11T00:43:51.756Z,32.70
2022-12-11T00:46:21.130Z,28.67
2022-12-11T00:48:50.466Z,30.38
2022-12-11T00:51:18.332Z,30.75
2022-12-11T00:53:47.932Z,28.95
2022-12-11T00:56:19.902Z,28.48
2022-12-11T00:58:49.859Z,29.23
2022-12-11T01:01:21.477Z,28.05
2022-12-11T01:03:50.264Z,30.30
2022-12-11T01:06:22.161Z,28.88
2022-12-11T01:09:10.615Z,29.95
2022-12-11T01:11:38.837Z,28.98
2022-12-11T01:14:08.132Z,28.95
2022-12-11T01:16:36.137Z,28.52
2022-12-11T01:19:04.362Z,26.35
2022-12-11T01:21:32.171Z,25.75
2022-12-11T01:24:00.273Z,26.92
2022-12-11T01:26:28.375Z,28.17
2022-12-11T01:28:57.953Z,27.35
2022-12-11T01:31:25.822Z,28.08
2022-12-11T01:33:55.784Z,27.23
2022-12-11T01:36:24.482Z,27.38
2022-12-11T01:38:54.625Z,26.25
2022-12-11T01:41:23.233Z,25.83
2022-12-11T01:43:58.569Z,26.10
2022-12-11T01:46:28.179Z,27.98
2022-12-11T01:48:58.003Z,25.65
2022-12-11T01:51:27.462Z,28.15
2022-12-11T01:54:02.991Z,24.48
2022-12-11T01:56:33.115Z,25.33
2022-12-11T01:59:08.882Z,25.92
2022-12-11T02:02:04.939Z,25.35
2022-12-11T02:04:35.944Z,24.38
2022-12-11T02:07:04.052Z,23.73
2022-12-11T02:09:35.510Z,23.83
2022-12-11T02:12:25.053Z,22.15
2022-12-11T02:15:15.912Z,21.35
2022-12-11T02:18:08.873Z,20.30
2022-12-11T02:20:39.406Z,18.98
2022-12-11T02:23:33.874Z,19.75
2022-12-11T02:26:38.824Z,18.27
2022-12-11T02:31:41.973Z,15.15
2022-12-11T02:34:26.323Z,15.85
2022-12-11T02:37:02.622Z,17.13
2022-12-11T02:39:33.474Z,16.02
2022-12-11T02:42:04.296Z,16.33
2022-12-11T02:44:35.294Z,17.60
2022-12-11T02:47:06.482Z,17.08
2022-12-11T02:49:35.783Z,17.52
2022-12-11T02:52:06.641Z,16.58
2022-12-11T02:54:38.463Z,17.60
2022-12-11T02:57:12.362Z,16.40
2022-12-11T02:59:44.482Z,16.95
2022-12-11T03:02:16.228Z,17.08
2022-12-11T03:04:46.483Z,16.35
2022-12-11T03:07:23.794Z,15.40
2022-12-11T03:09:52.504Z,15.75
2022-12-11T03:12:29.819Z,15.55
2022-12-11T03:15:04.045Z,16.33
2022-12-11T03:17:53.605Z,15.45
2022-12-11T03:20:43.814Z,14.48
2022-12-11T03:23:35.060Z,13.90
2022-12-11T03:26:16.126Z,15.75
2022-12-11T03:28:52.299Z,14.77
2022-12-11T03:31:45.095Z,13.73
2022-12-11T03:34:39.188Z,12.80
2022-12-11T03:37:10.498Z,12.05
2022-12-11T03:39:45.109Z,11.90
2022-12-11T03:42:16.655Z,8.75
2022-12-11T03:44:48.756Z,8.68
2022-12-11T03:47:20.995Z,9.77
2022-12-11T03:49:52.648Z,9.05
2022-12-11T03:52:23.356Z,10.32
2022-12-11T03:54:52.875Z,9.45
2022-12-11T03:57:25.137Z,8.40
2022-12-11T03:59:53.562Z,6.55
2022-12-11T04:02:21.713Z,4.00
2022-12-11T04:04:50.324Z,2.15
2022-12-11T04:07:18.899Z,1.88
2022-12-11T04:09:50.973Z,1.33
2022-12-11T04:12:19.055Z,1.40
2022-12-11T04:15:03.866Z,1.10
2022-12-11T04:17:55.828Z,1.30
2022-12-11T04:20:44.095Z,1.10
2022-12-11T04:23:34.998Z,0.90
2022-12-11T04:26:13.404Z,0.80
2022-12-11T04:28:44.465Z,1.02
2022-12-11T04:31:17.244Z,0.98
2022-12-11T04:33:46.477Z,0.90
2022-12-11T04:36:17.321Z,0.73
2022-12-11T04:38:45.437Z,0.90
2022-12-11T04:41:15.809Z,0.98
2022-12-11T04:43:47.217Z,0.90
2022-12-11T04:46:21.935Z,0.57
2022-12-11T04:48:57.065Z,0.60
2022-12-11T04:51:27.775Z,0.70
2022-12-11T04:53:56.525Z,0.70
2022-12-11T04:56:26.164Z,0.63
2022-12-11T04:58:54.094Z,0.80
2022-12-11T05:01:24.085Z,0.50
2022-12-11T05:03:52.278Z,0.77
2022-12-11T05:06:20.575Z,0.43
2022-12-11T05:08:48.723Z,0.70
2022-12-11T05:11:19.069Z,0.70
2022-12-11T05:13:47.191Z,1.65
2022-12-11T05:16:17.256Z,1.00
2022-12-11T05:18:45.188Z,0.52
2022-12-11T05:21:14.849Z,0.60
2022-12-11T05:23:43.009Z,0.70
2022-12-11T05:26:20.167Z,0.30
2022-12-11T05:28:53.529Z,0.60
2022-12-11T05:31:25.152Z,0.90
2022-12-11T05:33:53.790Z,0.70
2022-12-11T05:36:40.070Z,0.75
2022-12-11T05:39:09.832Z,0.90
2022-12-11T05:41:38.029Z,0.80
2022-12-11T05:44:06.029Z,1.08
2022-12-11T05:46:34.256Z,0.80
2022-12-11T05:49:03.229Z,0.70
2022-12-11T05:51:34.582Z,0.85
2022-12-11T05:54:03.146Z,0.60
2022-12-11T05:56:33.654Z,0.65
2022-12-11T05:59:03.733Z,0.75
2022-12-11T06:01:35.487Z,0.55
2022-12-11T06:04:04.779Z,0.90
2022-12-11T06:06:34.211Z,0.50
2022-12-11T06:09:03.332Z,1.30
2022-12-11T06:11:35.007Z,0.50
2022-12-11T06:14:04.358Z,0.60
2022-12-11T06:16:32.732Z,0.68
2022-12-11T06:19:00.979Z,0.40
2022-12-11T06:21:33.076Z,0.52
2022-12-11T06:24:04.018Z,0.55
2022-12-11T06:26:32.318Z,0.47
2022-12-11T06:29:00.241Z,0.50
2022-12-11T06:31:29.503Z,0.60
2022-12-11T06:33:57.363Z,0.50
2022-12-11T06:36:25.621Z,0.40
2022-12-11T06:38:53.943Z,0.45
2022-12-11T06:41:23.236Z,0.50
2022-12-11T06:43:51.152Z,0.20
2022-12-11T06:46:20.687Z,0.30
2022-12-11T06:48:49.530Z,0.50
2022-12-11T06:51:20.662Z,0.30
2022-12-11T06:53:53.500Z,0.45
2022-12-11T06:56:22.814Z,0.25
2022-12-11T06:58:52.058Z,0.22
2022-12-11T07:01:30.617Z,0.40
2022-12-11T07:04:01.187Z,0.60
2022-12-11T07:06:30.079Z,0.57
2022-12-11T07:08:58.503Z,0.22
2022-12-11T07:11:26.808Z,0.32
2022-12-11T07:13:54.769Z,0.55
2022-12-11T07:16:23.048Z,0.63
2022-12-11T07:18:51.857Z,0.52
2022-12-11T07:21:21.360Z,0.65
2022-12-11T07:23:50.652Z,0.70
2022-12-11T07:26:22.558Z,1.08
2022-12-11T07:28:51.064Z,1.35
2022-12-11T07:31:22.344Z,0.52
2022-12-11T07:33:58.875Z,0.98
2022-12-11T07:36:28.560Z,1.00
2022-12-11T07:38:56.979Z,1.27
2022-12-11T07:41:25.499Z,1.40
2022-12-11T07:43:56.491Z,0.65
2022-12-11T07:46:27.476Z,0.75
2022-12-11T07:48:55.598Z,0.70
2022-12-11T07:51:32.540Z,14.40
2022-12-11T07:54:02.603Z,1.10
2022-12-11T07:56:31.668Z,0.57
2022-12-11T07:59:04.845Z,0.77
2022-12-11T08:01:36.659Z,0.90
2022-12-11T08:04:10.898Z,1.00
2022-12-11T08:06:40.718Z,1.13
2022-12-11T08:09:14.656Z,1.98
2022-12-11T08:11:49.188Z,1.27
2022-12-11T08:14:17.037Z,1.52
2022-12-11T08:16:46.814Z,3.78
2022-12-11T08:19:16.202Z,7.63
2022-12-11T08:21:45.260Z,4.80
2022-12-11T08:24:18.171Z,14.50
2022-12-11T08:26:48.781Z,40.17
2022-12-11T08:29:22.421Z,4.00
2022-12-11T08:31:51.038Z,2.72
2022-12-11T08:34:19.061Z,2.25
2022-12-11T08:36:48.831Z,2.10
2022-12-11T08:39:19.301Z,2.40
2022-12-11T08:41:51.973Z,1.42
2022-12-11T08:44:27.829Z,4.93
2022-12-11T08:46:56.961Z,1.77
2022-12-11T08:49:27.503Z,7.82
2022-12-11T08:51:59.141Z,9.45
2022-12-11T08:54:27.009Z,4.20
2022-12-11T08:56:58.102Z,4.07
2022-12-11T08:59:26.269Z,2.28
2022-12-11T09:01:56.169Z,2.22
2022-12-11T09:04:24.489Z,2.63
2022-12-11T09:06:53.979Z,1.60
2022-12-11T09:12:06.124Z,1.48
2022-12-11T09:14:34.180Z,1.70
2022-12-11T09:17:04.309Z,6.72
2022-12-11T09:19:32.688Z,4.28
2022-12-11T09:22:03.091Z,1.38
2022-12-11T09:24:32.342Z,1.40
2022-12-11T09:27:01.239Z,1.30
2022-12-11T09:29:29.130Z,1.20
2022-12-11T09:31:57.362Z,1.40
2022-12-11T09:34:29.475Z,1.90
2022-12-11T09:36:58.041Z,4.72
2022-12-11T09:39:28.479Z,4.15
2022-12-11T09:42:03.493Z,4.38
2022-12-11T09:44:49.070Z,5.95
2022-12-11T09:47:35.548Z,2.22
2022-12-11T09:50:19.710Z,2.22
2022-12-11T09:53:19.200Z,2.55
2022-12-11T09:56:01.043Z,2.90
2022-12-11T09:58:57.785Z,2.35
2022-12-11T10:01:45.031Z,2.60
2022-12-11T10:04:40.186Z,2.85
2022-12-11T10:07:21.387Z,2.30
2022-12-11T10:10:00.313Z,2.50
2022-12-11T10:12:31.525Z,2.45
2022-12-11T10:15:32.300Z,2.13
2022-12-11T10:18:05.210Z,2.55
2022-12-11T10:20:40.792Z,3.45
2022-12-11T10:23:19.248Z,2.72
2022-12-11T10:25:57.454Z,3.70
2022-12-11T10:28:28.517Z,3.05
2022-12-11T10:31:00.022Z,3.42
2022-12-11T10:33:42.005Z,2.92
2022-12-11T10:36:14.094Z,3.10
2022-12-11T10:38:45.136Z,3.25
2022-12-11T10:41:39.737Z,3.15
2022-12-11T10:44:21.912Z,2.78
2022-12-11T10:47:06.334Z,2.80
2022-12-11T10:52:23.506Z,2.58
2022-12-11T10:55:34.786Z,2.22
2022-12-11T10:58:07.707Z,2.63
2022-12-11T11:00:39.992Z,2.20
2022-12-11T11:03:29.796Z,2.83
2022-12-11T11:06:07.463Z,2.53
2022-12-11T11:08:50.987Z,2.60
2022-12-11T11:11:30.603Z,2.55
2022-12-11T11:14:12.627Z,1.85
2022-12-11T11:16:43.257Z,2.65
2022-12-11T11:19:31.294Z,2.55
2022-12-11T11:22:14.504Z,2.72
2022-12-11T11:24:57.553Z,3.15
2022-12-11T11:27:31.459Z,3.60
2022-12-11T11:30:04.144Z,2.47
2022-12-11T11:32:39.252Z,5.00
2022-12-11T11:35:11.790Z,3.67
2022-12-11T11:37:47.074Z,4.78
2022-12-11T11:40:31.487Z,5.32
2022-12-11T11:45:48.103Z,3.38
2022-12-11T11:48:34.524Z,3.15
2022-12-11T11:51:40.871Z,3.17
2022-12-11T11:54:30.776Z,2.30
2022-12-11T11:57:04.267Z,2.75
2022-12-11T11:59:40.123Z,2.38
2022-12-11T12:02:16.192Z,2.05
2022-12-11T12:04:46.785Z,2.20
2022-12-11T12:07:29.794Z,2.40
2022-12-11T12:10:10.263Z,2.38
2022-12-11T12:12:51.961Z,2.20
2022-12-11T12:15:30.831Z,2.75
2022-12-11T12:18:05.867Z,42.17
2022-12-11T12:20:51.622Z,12.07
2022-12-11T12:23:25.822Z,10.23
2022-12-11T12:26:21.931Z,2.38
2022-12-11T12:29:19.226Z,2.58
2022-12-11T12:32:16.826Z,2.72
2022-12-11T12:34:56.681Z,2.22
2022-12-11T12:37:24.467Z,2.47
2022-12-11T12:40:26.729Z,2.85
2022-12-11T12:43:24.743Z,3.28
2022-12-11T12:46:08.435Z,2.63
2022-12-11T12:48:36.590Z,3.70
2022-12-11T12:51:06.629Z,2.53
2022-12-11T12:53:37.652Z,3.17
2022-12-11T12:56:07.002Z,3.28
2022-12-11T12:58:35.039Z,3.45
2022-12-11T13:01:13.966Z,3.35
2022-12-11T13:03:58.736Z,2.45
2022-12-11T13:06:40.751Z,2.15
2022-12-11T13:09:27.165Z,2.80
2022-12-11T13:12:00.409Z,2.20
2022-12-11T13:14:32.751Z,1.83
2022-12-11T13:17:22.907Z,2.13
2022-12-11T13:19:57.879Z,1.60
2022-12-11T13:22:26.268Z,1.98
2022-12-11T13:25:04.746Z,1.98
2022-12-11T13:27:38.309Z,1.48
2022-12-11T13:30:15.330Z,1.67
2022-12-11T13:33:03.932Z,1.75
2022-12-11T13:35:34.708Z,1.90
2022-12-11T13:38:18.212Z,1.70
2022-12-11T13:40:54.164Z,2.10
2022-12-11T13:43:29.305Z,2.15
2022-12-11T13:46:04.591Z,2.80
2022-12-11T13:48:38.728Z,3.85
2022-12-11T13:51:08.191Z,5.65
2022-12-11T13:53:36.584Z,3.05
2022-12-11T13:56:18.661Z,2.35
2022-12-11T13:58:48.837Z,4.22
2022-12-11T14:01:36.406Z,7.53
2022-12-11T14:04:11.791Z,14.23
2022-12-11T14:06:40.263Z,5.35
2022-12-11T14:09:09.817Z,3.38
2022-12-11T14:11:42.504Z,4.05
2022-12-11T14:14:33.293Z,3.40
2022-12-11T14:17:01.531Z,4.60
2022-12-11T14:19:30.173Z,5.07
2022-12-11T14:22:04.200Z,5.15
2022-12-11T14:24:33.763Z,5.07
2022-12-11T14:27:01.739Z,4.35
2022-12-11T14:29:32.894Z,3.03
2022-12-11T14:32:07.429Z,2.70
2022-12-11T14:34:44.917Z,2.92
2022-12-11T14:37:16.592Z,4.20
2022-12-11T14:39:46.671Z,2.85
2022-12-11T14:42:24.281Z,2.17
2022-12-11T14:44:59.041Z,2.28
2022-12-11T14:47:39.441Z,2.58
2022-12-11T14:50:18.201Z,3.00
2022-12-11T14:52:51.880Z,3.67
2022-12-11T14:55:40.530Z,2.88
2022-12-11T14:58:25.572Z,4.47
2022-12-11T15:01:21.079Z,2.50
2022-12-11T15:03:49.524Z,3.72
2022-12-11T15:06:24.806Z,2.25
2022-12-11T15:08:54.431Z,3.47
2022-12-11T15:11:25.421Z,5.97
2022-12-11T15:13:56.528Z,2.78
2022-12-11T15:16:27.909Z,4.57
2022-12-11T15:18:59.141Z,2.70
2022-12-11T15:21:35.503Z,4.22
2022-12-11T15:24:07.324Z,4.80
2022-12-11T15:26:44.910Z,3.13
2022-12-11T15:29:38.989Z,3.65
2022-12-11T15:32:08.249Z,3.00
2022-12-11T15:34:42.964Z,4.88
2022-12-11T15:37:38.608Z,3.10
2022-12-11T15:40:08.011Z,4.10
2022-12-11T15:42:40.348Z,6.70
2022-12-11T15:45:16.698Z,14.80
2022-12-11T15:47:47.478Z,9.60
2022-12-11T15:50:17.378Z,4.03
2022-12-11T15:52:46.800Z,3.40
2022-12-11T15:55:16.165Z,3.30
2022-12-11T15:57:54.659Z,5.57
2022-12-11T16:00:24.512Z,4.05
2022-12-11T16:02:54.524Z,4.43
2022-12-11T16:05:24.728Z,4.38
2022-12-11T16:07:55.293Z,3.78
2022-12-11T16:10:23.537Z,7.35
2022-12-11T16:12:52.229Z,4.00
2022-12-11T16:15:23.798Z,3.45
2022-12-11T16:18:05.262Z,5.72
2022-12-11T16:20:36.770Z,3.70
2022-12-11T16:23:06.672Z,3.50
2022-12-11T16:25:37.407Z,6.10
2022-12-11T16:28:07.102Z,7.05
2022-12-11T16:30:37.479Z,8.13
2022-12-11T16:33:12.164Z,5.15
2022-12-11T16:35:43.361Z,6.00
2022-12-11T16:38:12.518Z,6.88
2022-12-11T16:40:41.838Z,6.50
2022-12-11T16:43:11.121Z,8.45
2022-12-11T16:45:39.140Z,8.32
2022-12-11T16:48:07.488Z,5.05
2022-12-11T16:50:36.605Z,5.45
2022-12-11T16:53:05.053Z,9.43
2022-12-11T16:55:33.862Z,3.30
2022-12-11T16:58:02.301Z,4.22
2022-12-11T17:00:31.073Z,4.10
2022-12-11T17:02:59.399Z,3.80
2022-12-11T17:05:27.420Z,3.70
2022-12-11T17:07:55.831Z,6.63
2022-12-11T17:10:23.869Z,7.15
2022-12-11T17:12:52.119Z,5.40
2022-12-11T17:15:21.119Z,4.25
2022-12-11T17:17:49.477Z,3.53
2022-12-11T17:20:18.549Z,3.55
2022-12-11T17:22:46.858Z,3.63
2022-12-11T17:25:19.500Z,3.78
2022-12-11T17:27:48.674Z,2.53
2022-12-11T17:30:17.160Z,2.95
2022-12-11T17:32:49.028Z,2.97
2022-12-11T17:35:17.553Z,3.75
2022-12-11T17:37:46.451Z,7.80
2022-12-11T17:40:14.979Z,3.17
2022-12-11T17:42:45.622Z,4.32
2022-12-11T17:45:14.029Z,4.18
2022-12-11T17:47:42.762Z,4.38
2022-12-11T17:50:10.920Z,4.95
2022-12-11T17:52:44.042Z,5.97
2022-12-11T17:55:12.957Z,15.88
2022-12-11T17:57:42.891Z,8.48
2022-12-11T18:00:11.480Z,6.50
2022-12-11T18:02:44.027Z,5.65
2022-12-11T18:05:12.435Z,4.93
2022-12-11T18:07:40.969Z,9.15
2022-12-11T18:10:09.083Z,6.57
2022-12-11T18:12:37.860Z,6.00
2022-12-11T18:15:06.307Z,5.82
2022-12-11T18:17:35.798Z,5.93
2022-12-11T18:20:05.057Z,5.30
2022-12-11T18:22:34.220Z,7.28
2022-12-11T18:25:09.316Z,4.95
2022-12-11T18:27:39.010Z,3.88
2022-12-11T18:30:07.582Z,4.50
2022-12-11T18:32:36.225Z,3.80
2022-12-11T18:35:05.326Z,7.90
2022-12-11T18:37:35.390Z,4.88
2022-12-11T18:40:06.051Z,4.53
2022-12-11T18:42:35.194Z,4.95
2022-12-11T18:45:03.291Z,4.55
2022-12-11T18:47:31.631Z,4.20
2022-12-11T18:50:04.093Z,4.75
2022-12-11T18:52:36.193Z,3.75
2022-12-11T18:55:05.417Z,3.35
2022-12-11T18:57:33.572Z,4.32
2022-12-11T19:00:07.799Z,5.28
2022-12-11T19:02:36.258Z,4.45
2022-12-11T19:05:04.740Z,5.03
2022-12-11T19:07:33.517Z,4.90
2022-12-11T19:10:01.531Z,4.60
2022-12-11T19:12:31.098Z,4.15
2022-12-11T19:14:59.196Z,4.15
2022-12-11T19:17:28.107Z,7.55
2022-12-11T19:19:56.176Z,7.45
2022-12-11T19:22:27.230Z,5.97
2022-12-11T19:24:55.073Z,6.38
2022-12-11T19:27:23.692Z,6.10
2022-12-11T19:29:51.596Z,7.07
2022-12-11T19:32:20.860Z,6.82
2022-12-11T19:34:48.735Z,6.55
2022-12-11T19:37:16.959Z,4.80
2022-12-11T19:39:44.965Z,5.43
2022-12-11T19:42:13.269Z,5.63
2022-12-11T19:44:41.383Z,6.57
2022-12-11T19:47:10.395Z,7.10
2022-12-11T19:49:38.342Z,6.80
2022-12-11T19:52:08.097Z,7.50
2022-12-11T19:54:37.023Z,7.60
2022-12-11T19:57:05.259Z,8.77
2022-12-11T19:59:33.440Z,8.50
2022-12-11T20:02:01.782Z,7.22
2022-12-11T20:04:29.893Z,6.80
2022-12-11T20:06:58.209Z,6.38
2022-12-11T20:09:26.255Z,7.18
2022-12-11T20:11:54.431Z,8.30
2022-12-11T20:14:24.828Z,8.07
2022-12-11T20:17:12.977Z,7.20
2022-12-11T20:19:42.725Z,8.57
2022-12-11T20:22:11.235Z,8.98
2022-12-11T20:24:39.284Z,8.05
2022-12-11T20:27:07.522Z,6.53
2022-12-11T20:29:38.930Z,7.88
2022-12-11T20:32:07.756Z,8.05
2022-12-11T20:34:38.725Z,6.95
2022-12-11T20:37:09.283Z,6.55
2022-12-11T20:39:37.575Z,6.47
2022-12-11T20:42:09.930Z,6.93
2022-12-11T20:44:42.815Z,7.25
2022-12-11T20:47:15.835Z,6.75
2022-12-11T20:49:44.593Z,6.70
2022-12-11T20:52:13.472Z,7.85
2022-12-11T20:54:42.986Z,7.90
2022-12-11T20:57:12.278Z,6.15
2022-12-11T20:59:40.423Z,7.53
2022-12-11T21:02:13.494Z,7.43
2022-12-11T21:04:43.518Z,7.68
2022-12-11T21:07:12.001Z,7.25
2022-12-11T21:09:40.414Z,6.90
2022-12-11T21:12:09.106Z,7.03
2022-12-11T21:14:37.491Z,6.38
2022-12-11T21:17:06.506Z,7.47
2022-12-11T21:19:34.424Z,7.00
2022-12-11T21:22:02.976Z,7.20
2022-12-11T21:24:31.785Z,7.22
2022-12-11T21:27:00.113Z,6.75
2022-12-11T21:29:29.627Z,7.35
2022-12-11T21:31:59.240Z,7.07
2022-12-11T21:34:27.944Z,7.07
2022-12-11T21:36:57.533Z,6.93
2022-12-11T21:39:28.702Z,6.40
2022-12-11T21:41:58.450Z,7.10
2022-12-11T21:47:14.821Z,8.48
2022-12-11T21:49:42.734Z,6.65
2022-12-11T21:52:12.004Z,6.95
2022-12-11T21:54:40.983Z,6.57
2022-12-11T21:57:09.585Z,7.05
2022-12-11T21:59:38.564Z,7.05
2022-12-11T22:02:08.212Z,6.95
2022-12-11T22:04:37.263Z,7.90
2022-12-11T22:07:05.652Z,7.95
2022-12-11T22:09:34.223Z,8.63
2022-12-11T22:12:02.443Z,7.40
2022-12-11T22:14:31.831Z,7.85
2022-12-11T22:17:00.767Z,8.73
2022-12-11T22:19:32.514Z,8.15
2022-12-11T22:22:02.422Z,7.68
2022-12-11T22:24:31.439Z,8.18
2022-12-11T22:26:59.725Z,8.15
2022-12-11T22:29:27.585Z,7.57
2022-12-11T22:31:56.192Z,8.48
2022-12-11T22:34:24.892Z,8.02
2022-12-11T22:36:54.743Z,9.45
2022-12-11T22:39:23.060Z,9.18
2022-12-11T22:41:51.444Z,8.18
2022-12-11T22:44:21.586Z,8.23
2022-12-11T22:46:50.663Z,8.27
2022-12-11T22:49:20.375Z,8.60
2022-12-11T22:51:49.424Z,7.93
2022-12-11T22:54:17.321Z,8.05
2022-12-11T22:56:46.001Z,8.23
2022-12-11T22:59:13.887Z,12.13
2022-12-11T23:01:43.482Z,8.23
2022-12-11T23:04:11.445Z,8.63
2022-12-11T23:06:39.784Z,9.13
2022-12-11T23:09:08.703Z,9.57
2022-12-11T23:11:39.047Z,9.20
2022-12-11T23:14:11.740Z,8.43
2022-12-11T23:16:40.173Z,8.70
2022-12-11T23:19:09.034Z,8.82
2022-12-11T23:21:37.963Z,8.93
2022-12-11T23:24:06.857Z,8.57
2022-12-11T23:26:35.682Z,8.02
2022-12-11T23:29:06.283Z,8.80
2022-12-11T23:31:34.532Z,8.98
2022-12-11T23:34:03.084Z,8.57
2022-12-11T23:36:31.243Z,9.75
2022-12-11T23:38:59.185Z,7.43
2022-12-11T23:41:27.399Z,8.57
2022-12-11T23:43:55.186Z,7.97
2022-12-11T23:46:25.085Z,8.75
2022-12-11T23:48:53.172Z,8.75
2022-12-11T23:51:23.986Z,8.75
2022-12-11T23:53:52.833Z,8.57
2022-12-11T23:56:24.822Z,9.88
2022-12-11T23:58:53.563Z,10.07
